createdAt,value
2019-03-16T00:01:28.097Z,99450.98
2019-03-16T00:03:56.888Z,99448.75
2019-03-16T00:06:46.511Z,99454.93
2019-03-16T00:09:15.276Z,99444.02
2019-03-16T00:11:44.195Z,99432.03
2019-03-16T00:14:13.279Z,99445.04
2019-03-16T00:16:42.188Z,99447.59
2019-03-16T00:19:11.315Z,99444.96
2019-03-16T00:21:40.369Z,99442.33
2019-03-16T00:24:09.293Z,99437.59
2019-03-16T00:26:38.353Z,99449.06
2019-03-16T00:29:07.333Z,99450.38
2019-03-16T00:31:36.482Z,99453.47
2019-03-16T00:34:05.315Z,99464.00
2019-03-16T00:36:34.105Z,99455.65
2019-03-16T00:39:03.207Z,99465.31
2019-03-16T00:41:32.238Z,99470.58
2019-03-16T00:44:01.434Z,99473.30
2019-03-16T00:46:30.464Z,99467.16
2019-03-16T00:48:59.448Z,99482.58
2019-03-16T00:51:28.521Z,99493.49
2019-03-16T00:53:57.369Z,99492.66
2019-03-16T00:56:26.323Z,99498.00
2019-03-16T00:58:55.203Z,99498.46
2019-03-16T01:01:24.089Z,99491.88
2019-03-16T01:03:53.005Z,99496.20
2019-03-16T01:06:22.040Z,99497.67
2019-03-16T01:08:51.141Z,99497.67
2019-03-16T01:11:20.262Z,99489.77
2019-03-16T01:13:49.351Z,99498.53
2019-03-16T01:16:18.300Z,99493.72
2019-03-16T01:18:47.322Z,99478.87
2019-03-16T01:21:16.693Z,99464.84
2019-03-16T01:23:45.701Z,99474.13
2019-03-16T01:26:14.633Z,99487.70
2019-03-16T01:28:43.635Z,99495.60
2019-03-16T01:31:12.781Z,99498.23
2019-03-16T01:33:41.681Z,99492.03
2019-03-16T01:36:10.814Z,99486.39
2019-03-16T01:38:39.662Z,99484.66
2019-03-16T01:41:08.768Z,99495.60
2019-03-16T01:43:37.769Z,99494.73
2019-03-16T01:46:06.813Z,99493.05
2019-03-16T01:48:54.884Z,99482.52
2019-03-16T01:51:23.950Z,99488.23
2019-03-16T01:53:52.948Z,99498.38
2019-03-16T01:56:21.851Z,99502.78
2019-03-16T01:59:09.910Z,99503.24
2019-03-16T02:01:38.802Z,99516.02
2019-03-16T02:04:07.760Z,99507.67
2019-03-16T02:06:36.695Z,99516.41
2019-03-16T02:09:26.377Z,99508.13
2019-03-16T02:11:55.498Z,99512.60
2019-03-16T02:14:24.370Z,99516.09
2019-03-16T02:16:53.344Z,99515.72
2019-03-16T02:19:22.186Z,99509.97
2019-03-16T02:21:51.103Z,99507.83
2019-03-16T02:24:20.238Z,99503.02
2019-03-16T02:26:49.077Z,99500.00
2019-03-16T02:29:17.921Z,99493.88
2019-03-16T02:31:46.713Z,99503.02
2019-03-16T02:34:15.830Z,99510.05
2019-03-16T02:36:51.751Z,99502.26
2019-03-16T02:39:21.074Z,99500.38
2019-03-16T02:41:50.121Z,99490.86
2019-03-16T02:44:19.972Z,99504.89
2019-03-16T02:46:48.806Z,99508.84
2019-03-16T02:49:17.692Z,99517.19
2019-03-16T02:51:46.636Z,99515.01
2019-03-16T02:54:15.590Z,99515.01
2019-03-16T02:56:44.593Z,99519.37
2019-03-16T02:59:34.257Z,99526.92
2019-03-16T03:02:03.175Z,99535.23
2019-03-16T03:04:32.009Z,99544.90
2019-03-16T03:07:00.989Z,99544.90
2019-03-16T03:09:30.020Z,99541.89
2019-03-16T03:11:58.952Z,99548.06
2019-03-16T03:14:27.822Z,99552.48
2019-03-16T03:16:56.926Z,99553.81
2019-03-16T03:19:25.783Z,99552.56
2019-03-16T03:21:54.831Z,99557.34
2019-03-16T03:24:23.748Z,99552.56
2019-03-16T03:26:52.753Z,99552.64
2019-03-16T03:29:21.808Z,99563.16
2019-03-16T03:31:50.865Z,99563.62
2019-03-16T03:34:40.425Z,99573.20
2019-03-16T03:37:09.423Z,99572.83
2019-03-16T03:39:38.361Z,99582.04
2019-03-16T03:42:07.476Z,99580.34
2019-03-16T03:44:36.372Z,99587.30
2019-03-16T03:47:05.350Z,99581.66
2019-03-16T03:49:34.317Z,99579.55
2019-03-16T03:52:03.482Z,99582.56
2019-03-16T03:54:32.478Z,99571.66
2019-03-16T03:57:01.500Z,99574.30
2019-03-16T03:59:30.540Z,99567.71
2019-03-16T04:01:59.468Z,99571.66
2019-03-16T04:04:28.525Z,99574.36
2019-03-16T04:06:57.487Z,99565.16
2019-03-16T04:09:26.487Z,99567.41
2019-03-16T04:11:55.342Z,99569.55
2019-03-16T04:14:24.510Z,99576.13
2019-03-16T04:16:53.379Z,99580.56
2019-03-16T04:19:22.387Z,99570.48
2019-03-16T04:21:51.619Z,99570.48
2019-03-16T04:24:20.690Z,99567.41
2019-03-16T04:26:49.672Z,99570.94
2019-03-16T04:29:19.643Z,99573.57
2019-03-16T04:31:48.668Z,99576.62
2019-03-16T04:34:36.615Z,99582.78
2019-03-16T04:37:05.648Z,99582.78
2019-03-16T04:39:34.692Z,99579.77
2019-03-16T04:42:03.669Z,99578.91
2019-03-16T04:44:32.666Z,99576.76
2019-03-16T04:47:01.641Z,99575.52
2019-03-16T04:49:30.593Z,99572.73
2019-03-16T04:51:59.767Z,99578.91
2019-03-16T04:54:28.786Z,99593.00
2019-03-16T04:56:57.765Z,99588.67
2019-03-16T04:59:26.859Z,99590.82
2019-03-16T05:01:55.805Z,99587.73
2019-03-16T05:04:24.814Z,99587.36
2019-03-16T05:06:53.793Z,99595.25
2019-03-16T05:09:22.989Z,99607.62
2019-03-16T05:11:51.836Z,99612.81
2019-03-16T05:14:21.236Z,99607.62
2019-03-16T05:16:50.337Z,99614.58
2019-03-16T05:19:19.463Z,99610.25
2019-03-16T05:21:48.302Z,99622.47
2019-03-16T05:24:17.158Z,99619.46
2019-03-16T05:26:46.116Z,99618.14
2019-03-16T05:29:14.983Z,99619.05
2019-03-16T05:31:43.940Z,99627.02
2019-03-16T05:34:12.979Z,99624.38
2019-03-16T05:36:41.933Z,99627.84
2019-03-16T05:39:10.963Z,99634.91
2019-03-16T05:41:39.959Z,99639.75
2019-03-16T05:44:09.002Z,99644.11
2019-03-16T05:46:38.114Z,99640.62
2019-03-16T05:49:06.973Z,99639.38
2019-03-16T05:51:36.014Z,99640.30
2019-03-16T05:54:05.062Z,99646.81
2019-03-16T05:56:34.025Z,99652.98
2019-03-16T05:59:02.980Z,99655.69
2019-03-16T06:01:31.886Z,99651.73
2019-03-16T06:04:00.873Z,99648.72
2019-03-16T06:06:29.893Z,99651.28
2019-03-16T06:08:58.822Z,99654.84
2019-03-16T06:11:27.872Z,99659.63
2019-03-16T06:13:56.916Z,99657.06
2019-03-16T06:16:26.185Z,99658.87
2019-03-16T06:18:55.172Z,99665.37
2019-03-16T06:21:24.147Z,99669.77
2019-03-16T06:23:53.129Z,99661.88
2019-03-16T06:26:21.928Z,99666.34
2019-03-16T06:28:50.787Z,99661.08
2019-03-16T06:31:19.685Z,99661.02
2019-03-16T06:33:48.651Z,99668.97
2019-03-16T06:36:17.690Z,99665.52
2019-03-16T06:38:46.532Z,99667.28
2019-03-16T06:41:15.349Z,99661.08
2019-03-16T06:43:44.236Z,99668.14
2019-03-16T06:46:13.027Z,99668.14
2019-03-16T06:48:42.040Z,99662.02
2019-03-16T06:51:11.050Z,99658.52
2019-03-16T06:53:39.896Z,99660.25
2019-03-16T06:56:08.783Z,99665.10
2019-03-16T06:58:37.618Z,99655.51
2019-03-16T07:01:06.477Z,99655.89
2019-03-16T07:03:35.393Z,99653.74
2019-03-16T07:06:04.495Z,99651.94
2019-03-16T07:08:33.341Z,99647.09
2019-03-16T07:11:02.127Z,99646.23
2019-03-16T07:13:31.360Z,99641.42
2019-03-16T07:16:00.160Z,99637.89
2019-03-16T07:18:29.171Z,99643.15
2019-03-16T07:20:58.185Z,99649.66
2019-03-16T07:23:27.528Z,99655.23
2019-03-16T07:25:56.587Z,99647.79
2019-03-16T07:28:25.656Z,99650.77
2019-03-16T07:30:54.662Z,99643.39
2019-03-16T07:33:23.548Z,99628.98
2019-03-16T07:35:52.629Z,99645.30
2019-03-16T07:38:21.567Z,99648.86
2019-03-16T07:40:50.614Z,99645.37
2019-03-16T07:43:19.576Z,99647.09
2019-03-16T07:45:48.429Z,99638.34
2019-03-16T07:48:17.335Z,99639.72
2019-03-16T07:50:46.594Z,99644.53
2019-03-16T07:53:15.582Z,99635.77
2019-03-16T07:55:44.637Z,99639.34
2019-03-16T07:58:13.610Z,99640.17
2019-03-16T08:00:42.500Z,99643.29
2019-03-16T08:03:11.758Z,99629.34
2019-03-16T08:05:40.724Z,99629.27
2019-03-16T08:08:09.738Z,99634.16
2019-03-16T08:10:57.781Z,99623.62
2019-03-16T08:13:26.697Z,99617.95
2019-03-16T08:15:55.732Z,99620.58
2019-03-16T08:18:24.799Z,99619.75
2019-03-16T08:20:53.804Z,99614.00
2019-03-16T08:23:23.922Z,99601.72
2019-03-16T08:25:52.852Z,99610.06
2019-03-16T08:28:21.784Z,99610.06
2019-03-16T08:30:51.071Z,99604.80
2019-03-16T08:33:19.956Z,99597.39
2019-03-16T08:35:48.756Z,99595.66
2019-03-16T08:38:17.763Z,99585.20
2019-03-16T08:40:46.683Z,99583.44
2019-03-16T08:43:15.983Z,99577.66
2019-03-16T08:45:44.970Z,99568.45
2019-03-16T08:48:22.669Z,99559.69
2019-03-16T08:50:44.751Z,99564.95
2019-03-16T08:53:32.998Z,99563.12
2019-03-16T08:56:02.006Z,99561.25
2019-03-16T08:58:31.005Z,99561.17
2019-03-16T09:01:00.004Z,99557.72
2019-03-16T09:03:29.035Z,99560.27
2019-03-16T09:05:58.029Z,99551.59
2019-03-16T09:08:27.069Z,99555.62
2019-03-16T09:10:56.020Z,99545.66
2019-03-16T09:13:24.875Z,99533.96
2019-03-16T09:15:53.792Z,99530.32
2019-03-16T09:18:22.677Z,99528.86
2019-03-16T09:20:51.698Z,99520.37
2019-03-16T09:23:20.698Z,99510.75
2019-03-16T09:25:49.531Z,99516.01
2019-03-16T09:28:19.226Z,99502.02
2019-03-16T09:30:48.204Z,99496.27
2019-03-16T09:33:17.185Z,99486.88
2019-03-16T09:35:46.179Z,99491.16
2019-03-16T09:38:15.218Z,99486.58
2019-03-16T09:40:44.234Z,99490.08
2019-03-16T09:43:13.301Z,99486.50
2019-03-16T09:45:42.209Z,99485.75
2019-03-16T09:48:11.252Z,99487.06
2019-03-16T09:50:40.326Z,99480.08
2019-03-16T09:53:09.327Z,99481.02
2019-03-16T09:55:38.334Z,99476.77
2019-03-16T09:58:07.377Z,99468.37
2019-03-16T10:00:36.397Z,99458.34
2019-03-16T10:03:05.377Z,99465.38
2019-03-16T10:05:34.260Z,99452.59
2019-03-16T10:08:03.187Z,99446.20
2019-03-16T10:10:32.174Z,99444.24
2019-03-16T10:13:01.114Z,99429.02
2019-03-16T10:15:30.304Z,99435.19
2019-03-16T10:17:59.136Z,99421.80
2019-03-16T10:20:28.149Z,99420.48
2019-03-16T10:22:57.036Z,99408.19
2019-03-16T10:25:26.046Z,99406.31
2019-03-16T10:27:54.982Z,99409.43
2019-03-16T10:30:23.966Z,99406.02
2019-03-16T10:32:54.738Z,99403.83
2019-03-16T10:35:23.510Z,99390.59
2019-03-16T10:37:52.552Z,99384.43
2019-03-16T10:40:21.594Z,99387.89
2019-03-16T10:42:50.469Z,99378.61
2019-03-16T10:45:19.353Z,99381.16
2019-03-16T10:47:48.283Z,99382.95
2019-03-16T10:50:17.168Z,99371.49
2019-03-16T10:52:46.138Z,99374.98
2019-03-16T10:55:15.128Z,99373.19
2019-03-16T10:57:44.097Z,99379.23
2019-03-16T11:00:13.208Z,99380.25
2019-03-16T11:02:42.110Z,99366.15
2019-03-16T11:05:11.215Z,99359.57
2019-03-16T11:07:40.208Z,99356.94
2019-03-16T11:10:09.185Z,99371.34
2019-03-16T11:12:38.121Z,99348.97
2019-03-16T11:15:07.778Z,99353.29
2019-03-16T11:17:36.801Z,99360.28
2019-03-16T11:20:06.200Z,99352.38
2019-03-16T11:22:35.222Z,99344.48
2019-03-16T11:25:04.333Z,99340.45
2019-03-16T11:27:33.516Z,99350.91
2019-03-16T11:30:02.529Z,99332.86
2019-03-16T11:32:31.543Z,99349.97
2019-03-16T11:35:00.427Z,99336.24
2019-03-16T11:37:29.265Z,99334.92
2019-03-16T11:39:58.197Z,99324.80
2019-03-16T11:42:26.950Z,99325.55
2019-03-16T11:44:55.896Z,99325.47
2019-03-16T11:47:25.062Z,99318.44
2019-03-16T11:49:54.012Z,99324.08
2019-03-16T11:52:22.917Z,99320.53
2019-03-16T11:54:51.874Z,99320.91
2019-03-16T11:57:20.666Z,99331.28
2019-03-16T11:59:49.558Z,99314.17
2019-03-16T12:02:18.687Z,99315.86
2019-03-16T12:04:47.579Z,99312.31
2019-03-16T12:07:37.181Z,99312.69
2019-03-16T12:10:07.054Z,99319.19
2019-03-16T12:12:37.073Z,99319.27
2019-03-16T12:15:06.203Z,99309.20
2019-03-16T12:17:35.142Z,99312.69
2019-03-16T12:20:04.369Z,99306.11
2019-03-16T12:22:33.198Z,99299.07
2019-03-16T12:25:02.103Z,99307.80
2019-03-16T12:27:31.075Z,99320.96
2019-03-16T12:29:59.860Z,99316.48
2019-03-16T12:32:28.898Z,99301.63
2019-03-16T12:34:58.149Z,99321.74
2019-03-16T12:37:27.123Z,99302.00
2019-03-16T12:39:56.285Z,99303.31
2019-03-16T12:42:25.314Z,99298.42
2019-03-16T12:44:54.152Z,99298.83
2019-03-16T12:47:23.031Z,99297.10
2019-03-16T12:49:52.065Z,99289.61
2019-03-16T12:52:21.065Z,99279.83
2019-03-16T12:54:50.203Z,99282.46
2019-03-16T12:57:18.991Z,99278.43
2019-03-16T12:59:48.109Z,99280.16
2019-03-16T13:02:17.023Z,99276.13
2019-03-16T13:04:46.037Z,99263.33
2019-03-16T13:07:15.308Z,99257.97
2019-03-16T13:09:44.338Z,99254.40
2019-03-16T13:12:13.448Z,99247.81
2019-03-16T13:14:42.480Z,99243.78
2019-03-16T13:17:11.324Z,99245.02
2019-03-16T13:19:42.963Z,99235.80
2019-03-16T13:22:11.914Z,99243.61
2019-03-16T13:24:40.903Z,99248.88
2019-03-16T13:27:09.913Z,99239.58
2019-03-16T13:29:39.029Z,99244.56
2019-03-16T13:32:08.191Z,99241.47
2019-03-16T13:34:37.273Z,99240.16
2019-03-16T13:37:06.099Z,99242.79
2019-03-16T13:39:35.001Z,99239.20
2019-03-16T13:42:04.022Z,99241.39
2019-03-16T13:44:33.009Z,99239.20
2019-03-16T13:47:01.919Z,99223.49
2019-03-16T13:49:30.824Z,99222.55
2019-03-16T13:51:59.633Z,99220.86
2019-03-16T13:54:28.887Z,99235.72
2019-03-16T13:56:57.672Z,99229.63
2019-03-16T13:59:26.660Z,99226.13
2019-03-16T14:01:55.668Z,99225.27
2019-03-16T14:04:24.673Z,99224.81
2019-03-16T14:07:12.636Z,99220.86
2019-03-16T14:09:41.657Z,99224.81
2019-03-16T14:12:10.509Z,99228.67
2019-03-16T14:14:39.775Z,99235.72
2019-03-16T14:17:08.742Z,99228.76
2019-03-16T14:19:38.882Z,99228.39
2019-03-16T14:22:07.822Z,99225.18
2019-03-16T14:24:36.773Z,99237.97
2019-03-16T14:27:08.215Z,99231.48
2019-03-16T14:29:36.492Z,99225.75
2019-03-16T14:32:05.475Z,99223.86
2019-03-16T14:34:34.331Z,99221.80
2019-03-16T14:37:03.388Z,99217.85
2019-03-16T14:39:32.283Z,99221.31
2019-03-16T14:42:24.902Z,99221.80
2019-03-16T14:44:54.282Z,99201.11
2019-03-16T14:47:23.335Z,99219.17
2019-03-16T14:50:15.993Z,99213.41
2019-03-16T14:52:43.872Z,99223.95
2019-03-16T14:55:12.917Z,99231.02
2019-03-16T14:57:41.990Z,99225.75
2019-03-16T15:00:12.508Z,99214.36
2019-03-16T15:02:41.469Z,99219.62
2019-03-16T15:05:10.525Z,99207.86
2019-03-16T15:07:39.518Z,99209.95
2019-03-16T15:10:08.969Z,99220.57
2019-03-16T15:12:37.830Z,99204.77
2019-03-16T15:15:08.063Z,99210.03
2019-03-16T15:17:37.093Z,99201.27
2019-03-16T15:20:25.322Z,99214.81
2019-03-16T15:22:54.133Z,99220.57
2019-03-16T15:25:23.023Z,99207.86
2019-03-16T15:27:51.890Z,99212.75
2019-03-16T15:30:21.134Z,99220.48
2019-03-16T15:32:50.143Z,99219.70
2019-03-16T15:35:19.153Z,99220.08
2019-03-16T15:37:48.108Z,99219.70
2019-03-16T15:40:16.979Z,99216.70
2019-03-16T15:42:46.191Z,99195.15
2019-03-16T15:45:16.901Z,99193.37
2019-03-16T15:47:45.776Z,99202.14
2019-03-16T15:50:14.680Z,99192.52
2019-03-16T15:52:43.491Z,99193.37
2019-03-16T15:55:12.326Z,99178.52
2019-03-16T15:57:42.778Z,99170.13
2019-03-16T16:00:12.782Z,99170.13
2019-03-16T16:02:41.831Z,99156.88
2019-03-16T16:05:10.742Z,99155.19
2019-03-16T16:07:39.618Z,99143.26
2019-03-16T16:10:09.414Z,99142.89
2019-03-16T16:12:38.299Z,99143.34
2019-03-16T16:15:07.769Z,99153.88
2019-03-16T16:17:36.797Z,99154.73
2019-03-16T16:20:06.109Z,99172.68
2019-03-16T16:22:35.190Z,99150.30
2019-03-16T16:25:04.210Z,99143.26
2019-03-16T16:27:33.140Z,99142.23
2019-03-16T16:30:21.433Z,99138.77
2019-03-16T16:32:50.484Z,99135.36
2019-03-16T16:35:19.577Z,99139.77
2019-03-16T16:37:48.495Z,99134.04
2019-03-16T16:40:17.509Z,99127.00
2019-03-16T16:42:46.559Z,99137.62
2019-03-16T16:45:15.504Z,99123.97
2019-03-16T16:47:44.577Z,99124.45
2019-03-16T16:50:14.350Z,99128.86
2019-03-16T16:52:43.271Z,99129.72
2019-03-16T16:55:12.432Z,99122.27
2019-03-16T16:57:41.314Z,99126.23
2019-03-16T17:00:13.061Z,99119.56
2019-03-16T17:02:42.102Z,99120.88
2019-03-16T17:05:11.004Z,99127.45
2019-03-16T17:07:40.028Z,99128.31
2019-03-16T17:10:28.714Z,99125.77
2019-03-16T17:12:57.725Z,99135.91
2019-03-16T17:15:26.600Z,99125.77
2019-03-16T17:17:55.735Z,99136.76
2019-03-16T17:20:24.771Z,99120.50
2019-03-16T17:22:53.882Z,99130.17
2019-03-16T17:25:24.835Z,99124.05
2019-03-16T17:27:54.539Z,99114.38
2019-03-16T17:30:23.575Z,99118.33
2019-03-16T17:32:52.786Z,99119.73
2019-03-16T17:35:21.950Z,99124.91
2019-03-16T17:37:50.932Z,99117.47
2019-03-16T17:40:19.836Z,99110.05
2019-03-16T17:43:07.954Z,99106.11
2019-03-16T17:45:36.940Z,99102.16
2019-03-16T17:48:05.793Z,99105.70
2019-03-16T17:50:34.688Z,99115.33
2019-03-16T17:53:03.793Z,99109.56
2019-03-16T17:55:32.696Z,99110.88
2019-03-16T17:58:01.991Z,99110.05
2019-03-16T18:00:30.874Z,99098.66
2019-03-16T18:02:59.946Z,99110.52
2019-03-16T18:05:47.999Z,99096.98
2019-03-16T18:08:36.086Z,99105.70
2019-03-16T18:11:05.100Z,99095.17
2019-03-16T18:13:34.144Z,99098.30
2019-03-16T18:16:03.056Z,99087.27
2019-03-16T18:18:32.062Z,99079.46
2019-03-16T18:21:01.068Z,99084.64
2019-03-16T18:23:30.137Z,99101.84
2019-03-16T18:25:59.072Z,99110.97
2019-03-16T18:28:28.134Z,99101.38
2019-03-16T18:30:57.105Z,99108.42
2019-03-16T18:33:25.950Z,99100.06
2019-03-16T18:35:55.245Z,99097.06
2019-03-16T18:38:24.191Z,99097.44
2019-03-16T18:40:53.094Z,99099.70
2019-03-16T18:43:21.994Z,99103.64
2019-03-16T18:45:51.223Z,99105.79
2019-03-16T18:48:20.237Z,99109.28
2019-03-16T18:50:49.116Z,99099.20
2019-03-16T18:53:18.045Z,99105.70
2019-03-16T18:55:59.330Z,99092.63
2019-03-16T18:58:37.272Z,99099.61
2019-03-16T19:00:59.214Z,99097.06
2019-03-16T19:03:28.360Z,99090.94
2019-03-16T19:05:57.333Z,99098.75
2019-03-16T19:08:26.337Z,99095.25
2019-03-16T19:10:55.333Z,99092.25
2019-03-16T19:13:24.279Z,99095.75
2019-03-16T19:15:53.314Z,99082.58
2019-03-16T19:18:22.304Z,99093.11
2019-03-16T19:20:51.324Z,99102.78
2019-03-16T19:23:20.116Z,99099.20
2019-03-16T19:25:49.182Z,99099.20
2019-03-16T19:28:18.623Z,99094.89
2019-03-16T19:30:47.722Z,99095.34
2019-03-16T19:33:16.600Z,99088.67
2019-03-16T19:35:45.535Z,99084.27
2019-03-16T19:38:14.574Z,99090.08
2019-03-16T19:40:43.450Z,99081.72
2019-03-16T19:43:12.241Z,99077.77
2019-03-16T19:45:41.105Z,99069.02
2019-03-16T19:48:09.994Z,99071.65
2019-03-16T19:50:39.000Z,99070.82
2019-03-16T19:53:08.033Z,99071.65
2019-03-16T19:55:37.167Z,99058.88
2019-03-16T19:58:06.091Z,99064.61
2019-03-16T20:00:55.709Z,99061.11
2019-03-16T20:03:25.532Z,99063.29
2019-03-16T20:05:54.360Z,99066.38
2019-03-16T20:08:23.370Z,99060.28
2019-03-16T20:10:52.261Z,99061.11
2019-03-16T20:13:21.217Z,99061.11
2019-03-16T20:15:50.119Z,99055.84
2019-03-16T20:18:39.818Z,99059.42
2019-03-16T20:21:08.770Z,99055.84
2019-03-16T20:23:37.680Z,99055.94
2019-03-16T20:26:06.730Z,99045.80
2019-03-16T20:28:35.588Z,99034.78
2019-03-16T20:31:04.497Z,99040.54
2019-03-16T20:33:33.529Z,99039.22
2019-03-16T20:36:02.600Z,99039.22
2019-03-16T20:38:31.621Z,99032.64
2019-03-16T20:41:00.660Z,99032.15
2019-03-16T20:43:29.856Z,99024.74
2019-03-16T20:45:58.955Z,99036.10
2019-03-16T20:48:27.938Z,99027.38
2019-03-16T20:50:57.011Z,99021.25
2019-03-16T20:53:25.863Z,99025.56
2019-03-16T20:55:54.905Z,99016.84
2019-03-16T20:58:23.883Z,99014.21
2019-03-16T21:00:52.949Z,99018.62
2019-03-16T21:03:21.900Z,99011.09
2019-03-16T21:05:50.951Z,99008.86
2019-03-16T21:08:20.023Z,99019.94
2019-03-16T21:10:48.944Z,99009.77
2019-03-16T21:13:18.021Z,99012.98
2019-03-16T21:15:47.080Z,99001.50
2019-03-16T21:18:16.057Z,98997.92
2019-03-16T21:20:45.126Z,99001.41
2019-03-16T21:23:14.061Z,98992.66
2019-03-16T21:25:43.016Z,98990.02
2019-03-16T21:28:11.894Z,98996.61
2019-03-16T21:30:40.824Z,98990.42
2019-03-16T21:33:09.687Z,98984.30
2019-03-16T21:35:38.574Z,98985.98
2019-03-16T21:38:07.412Z,98990.88
2019-03-16T21:40:36.272Z,98979.49
2019-03-16T21:43:05.187Z,98975.54
2019-03-16T21:45:34.232Z,98973.31
2019-03-16T21:48:22.242Z,98959.38
2019-03-16T21:50:51.171Z,98963.69
2019-03-16T21:53:20.046Z,98947.07
2019-03-16T21:55:49.086Z,98952.42
2019-03-16T21:58:18.076Z,98943.58
2019-03-16T22:00:47.009Z,98934.73
2019-03-16T22:03:16.032Z,98925.14
2019-03-16T22:05:45.311Z,98935.68
2019-03-16T22:08:14.388Z,98929.09
2019-03-16T22:10:43.434Z,98931.73
2019-03-16T22:13:12.390Z,98929.09
2019-03-16T22:15:41.313Z,98929.56
2019-03-16T22:18:10.216Z,98919.11
2019-03-16T22:20:39.210Z,98920.73
2019-03-16T22:23:08.213Z,98915.94
2019-03-16T22:25:37.146Z,98905.31
2019-03-16T22:28:06.237Z,98911.03
2019-03-16T22:30:54.486Z,98902.77
2019-03-16T22:33:23.529Z,98908.89
2019-03-16T22:36:11.625Z,98905.86
2019-03-16T22:38:40.626Z,98900.05
2019-03-16T22:41:09.602Z,98896.55
2019-03-16T22:43:38.554Z,98894.02
2019-03-16T22:46:07.570Z,98893.92
2019-03-16T22:48:36.621Z,98886.88
2019-03-16T22:51:05.566Z,98879.44
2019-03-16T22:53:34.574Z,98879.08
2019-03-16T22:56:03.659Z,98871.94
2019-03-16T22:58:32.619Z,98879.08
2019-03-16T23:01:01.692Z,98876.72
2019-03-16T23:03:30.598Z,98874.17
2019-03-16T23:05:59.588Z,98868.54
2019-03-16T23:08:28.556Z,98863.09
2019-03-16T23:10:57.727Z,98857.45
2019-03-16T23:13:26.811Z,98852.28
2019-03-16T23:15:55.791Z,98850.48
2019-03-16T23:18:24.805Z,98850.48
2019-03-16T23:20:53.805Z,98841.27
2019-03-16T23:23:22.734Z,98839.95
2019-03-16T23:25:51.918Z,98836.00
2019-03-16T23:28:20.907Z,98828.19
2019-03-16T23:30:49.893Z,98831.22
2019-03-16T23:33:18.815Z,98836.00
2019-03-16T23:35:47.808Z,98821.06
2019-03-16T23:38:16.852Z,98826.41
2019-03-16T23:40:45.877Z,98830.73
2019-03-16T23:43:14.891Z,98824.15
2019-03-16T23:45:43.901Z,98818.88
2019-03-16T23:48:12.944Z,98814.57
2019-03-16T23:50:42.015Z,98810.16
2019-03-16T23:53:10.902Z,98821.06
2019-03-16T23:55:39.946Z,98815.42
2019-03-16T23:58:09.196Z,98807.13
